KPAH/PAH METAR and TAF weather

Enter ICAO airport designator
Station Type Date Time Source
KPAH METAR 2022/06/28 08:53 UTC NOAA

KPAH 280853Z AUTO 00000KT 10SM CLR 14/13 A3019 RMK AO2 SLP221 T01440128 56005


Station Type Date Time Source
KPAH Decoded METAR 2022/06/28 08:53 UTC NOAA

BARKLEY REGIONAL AIRPORT, KY, United States (KPAH) 37-03N 088-46W 118M
Jun 28, 2022 - 04:53 AM EDT / 2022.06.28 0853 UTC
Wind: Calm:0
Visibility: 10 mile(s):0
Sky conditions: clear
Temperature: 57.9 F (14.4 C)
Dew Point: 55.0 F (12.8 C)
Relative Humidity: 90%
Pressure (altimeter): 30.19 in. Hg (1022 hPa)
Pressure tendency: 0.01 inches (0.5 hPa) lower than three hours ago
ob: KPAH 280853Z AUTO 00000KT 10SM CLR 14/13 A3019 RMK AO2 SLP221 T01440128 56005
cycle: 9

Station Type Date Time Source
KPAH TAF 2022/06/28 06:22 UTC NOAA

TAF KPAH 280520Z 2806/2906 06005KT P6SM FEW250

Example: see airport list